Time;durP1;ratioP1;P1;durP2;ratioP2;P2;SDS_P1;SDS_P2;PMS_P1;PMS_P2;Temp;Humidity;BMP_temperature;BMP_pressure;BME280_temperature;BME280_humidity;BME280_pressure;Samples;Min_cycle;Max_cycle;Signal;HPM_P1;HPM_P2
2021/11/04 00:01:06;;;;;;;;;;;;;;;21.79;52.63;100676.44;7281438;19;152250;-49
2021/11/04 00:03:33;;;;;;;;;;;;;;;21.78;52.33;100677.59;7282810;19;153318;-49
2021/11/04 00:06:00;;;;;;;;;;;;;;;21.77;52.92;100675.94;7282450;19;153971;-48
2021/11/04 00:08:27;;;;;;;;;;;;;;;21.77;52.54;100687.19;7290609;19;152201;-48
2021/11/04 00:10:53;;;;;;;;;;;;;;;21.76;52.79;100684.72;7282637;19;153557;-49
2021/11/04 00:13:21;;;;;;;;;;;;;;;21.73;52.89;100677.72;7281992;19;152179;-48
2021/11/04 00:15:47;;;;;;;;;;;;;;;21.72;53.19;100679.72;7280936;19;153516;-49
2021/11/04 00:18:14;;;;;;;;;;;;;;;21.70;53.57;100684.84;7281570;19;152846;-49
2021/11/04 00:20:41;;;;;;;;;;;;;;;21.70;53.62;100669.94;7281126;19;151814;-49
2021/11/04 00:23:08;;;;;;;;;;;;;;;21.69;53.41;100676.72;7279134;19;153132;-49
2021/11/04 00:25:35;;;;;;;;;;;;;;;21.68;53.26;100673.06;7280631;19;153659;-49
2021/11/04 00:28:02;;;;;;;;;;;;;;;21.68;53.28;100678.69;7280561;19;152170;-49
2021/11/04 00:30:29;;;;;;;;;;;;;;;21.66;53.43;100677.38;7289264;19;152928;-49
2021/11/04 00:32:56;;;;;;;;;;;;;;;21.64;53.42;100688.09;7283202;19;151546;-48
2021/11/04 00:35:23;;;;;;;;;;;;;;;21.62;53.23;100691.22;7282651;19;152689;-48
2021/11/04 00:37:50;;;;;;;;;;;;;;;21.60;53.68;100693.53;7279442;19;153824;-49
2021/11/04 00:40:19;;;;;;;;;;;;;;;21.59;53.38;100693.84;7281807;19;151976;-49
2021/11/04 00:42:46;;;;;;;;;;;;;;;21.58;53.74;100690.22;7284204;19;152592;-49
2021/11/04 00:45:14;;;;;;;;;;;;;;;21.58;53.63;100687.41;7284015;19;152573;-49
2021/11/04 00:47:40;;;;;;;;;;;;;;;21.56;53.40;100695.34;7289712;19;152095;-49
2021/11/04 00:50:07;;;;;;;;;;;;;;;21.55;53.52;100690.03;7288898;19;153658;-49
2021/11/04 00:52:35;;;;;;;;;;;;;;;21.55;53.65;100692.84;7296085;19;152201;-49
2021/11/04 00:55:03;;;;;;;;;;;;;;;21.54;53.11;100688.38;7289095;19;153165;-48
2021/11/04 00:57:30;;;;;;;;;;;;;;;21.54;53.13;100686.38;7285150;19;152344;-49
2021/11/04 00:59:57;;;;;;;;;;;;;;;21.49;53.23;100694.94;7289326;19;152207;-49
2021/11/04 01:02:23;;;;;;;;;;;;;;;21.52;53.08;100690.69;7285162;19;153474;-49
2021/11/04 01:04:50;;;;;;;;;;;;;;;21.51;53.04;100692.66;7285375;19;153378;-49
2021/11/04 01:07:17;;;;;;;;;;;;;;;21.47;53.07;100697.28;7288986;19;152449;-49
2021/11/04 01:09:44;;;;;;;;;;;;;;;21.45;53.13;100693.09;7288626;19;152536;-48
2021/11/04 01:12:11;;;;;;;;;;;;;;;21.43;52.90;100690.63;7295168;19;153601;-49
2021/11/04 01:14:37;;;;;;;;;;;;;;;21.37;53.01;100689.09;7288010;19;152816;-49
2021/11/04 01:17:04;;;;;;;;;;;;;;;21.35;52.82;100697.00;7287117;19;153543;-49
2021/11/04 01:19:31;;;;;;;;;;;;;;;21.40;52.77;100699.69;7288647;19;151828;-49
2021/11/04 01:21:58;;;;;;;;;;;;;;;21.31;53.26;100704.41;7287880;19;152659;-48
2021/11/04 01:24:25;;;;;;;;;;;;;;;21.35;52.97;100690.59;7286709;19;153473;-49
2021/11/04 01:26:51;;;;;;;;;;;;;;;21.26;52.90;100698.91;7287197;19;152251;-48
2021/11/04 01:29:18;;;;;;;;;;;;;;;21.22;53.16;100695.94;7288095;19;152814;-48
2021/11/04 01:31:45;;;;;;;;;;;;;;;21.18;52.77;100700.53;7285972;19;154233;-48
2021/11/04 01:34:12;;;;;;;;;;;;;;;21.19;53.21;100702.19;7293364;19;152036;-49
2021/11/04 01:36:39;;;;;;;;;;;;;;;21.10;53.09;100704.06;7286389;19;154107;-48
2021/11/04 01:39:06;;;;;;;;;;;;;;;21.07;52.95;100699.09;7287782;19;151884;-48
2021/11/04 01:41:33;;;;;;;;;;;;;;;21.06;52.69;100697.44;7287693;19;153258;-48
2021/11/04 01:44:00;;;;;;;;;;;;;;;21.02;53.16;100693.59;7285380;19;153731;-49
2021/11/04 01:46:26;;;;;;;;;;;;;;;20.98;53.33;100697.38;7287221;19;152974;-48
2021/11/04 01:48:53;;;;;;;;;;;;;;;21.01;53.23;100693.91;7287735;19;153998;-49
2021/11/04 01:51:20;;;;;;;;;;;;;;;20.97;53.43;100706.94;7286597;19;153991;-49
2021/11/04 01:53:47;;;;;;;;;;;;;;;20.95;52.95;100701.63;7285441;19;152106;-49
2021/11/04 01:56:14;;;;;;;;;;;;;;;20.88;53.54;100700.41;7294138;19;153532;-49
2021/11/04 01:58:41;;;;;;;;;;;;;;;20.90;53.29;100710.16;7284388;19;152148;-48
2021/11/04 02:01:08;;;;;;;;;;;;;;;20.89;53.59;100713.31;7286389;19;153758;-48
2021/11/04 02:04:04;;;;;;;;;;;;;;;20.85;53.45;100716.72;7283061;19;153988;-49
2021/11/04 02:06:39;;;;;;;;;;;;;;;20.80;53.41;100725.28;7287985;19;151990;-48
2021/11/04 02:09:13;;;;;;;;;;;;;;;20.78;53.17;100730.38;7285034;19;152649;-49
2021/11/04 02:11:48;;;;;;;;;;;;;;;20.74;53.43;100732.16;7285639;19;152484;-49
2021/11/04 02:14:17;;;;;;;;;;;;;;;20.71;53.32;100724.38;7287521;19;151911;-49
2021/11/04 02:16:45;;;;;;;;;;;;;;;20.71;53.17;100737.59;7284795;19;153154;-49
2021/11/04 02:19:19;;;;;;;;;;;;;;;20.69;53.74;100732.28;7293268;19;154065;-49
2021/11/04 02:21:51;;;;;;;;;;;;;;;20.67;53.57;100733.75;7284803;19;152011;-49
2021/11/04 02:24:24;;;;;;;;;;;;;;;20.60;53.81;100727.72;7283091;19;153800;-49
2021/11/04 02:26:51;;;;;;;;;;;;;;;20.59;53.62;100728.84;7283526;19;151919;-49
2021/11/04 02:29:19;;;;;;;;;;;;;;;20.58;53.56;100736.44;7286269;19;153126;-48
2021/11/04 02:31:48;;;;;;;;;;;;;;;20.53;53.84;100730.97;7286352;19;153314;-49
2021/11/04 02:34:15;;;;;;;;;;;;;;;20.53;53.79;100733.78;7285069;19;152461;-48
2021/11/04 02:36:43;;;;;;;;;;;;;;;20.53;53.79;100739.38;7286045;19;152177;-48
2021/11/04 02:39:11;;;;;;;;;;;;;;;20.50;53.58;100734.38;7284808;19;153382;-48
2021/11/04 02:41:38;;;;;;;;;;;;;;;20.49;53.49;100735.53;7294639;19;151877;-49
2021/11/04 02:44:09;;;;;;;;;;;;;;;20.47;54.00;100731.38;7283464;19;153649;-49
2021/11/04 02:46:36;;;;;;;;;;;;;;;20.47;53.74;100739.78;7283987;19;151640;-50
2021/11/04 02:49:03;;;;;;;;;;;;;;;20.48;53.65;100747.09;7283677;19;153528;-48
2021/11/04 02:51:30;;;;;;;;;;;;;;;20.41;53.81;100741.88;7284098;19;154190;-49
2021/11/04 02:53:58;;;;;;;;;;;;;;;20.40;53.79;100745.81;7285780;19;151563;-48
2021/11/04 02:56:40;;;;;;;;;;;;;;;20.37;53.73;100740.84;7284206;19;152792;-48
2021/11/04 02:59:06;;;;;;;;;;;;;;;20.35;54.02;100737.53;7285259;19;153283;-48
2021/11/04 03:01:33;;;;;;;;;;;;;;;20.31;54.25;100742.91;7283718;19;151992;-49
2021/11/04 03:04:00;;;;;;;;;;;;;;;20.28;54.42;100749.13;7292167;19;154475;-49
2021/11/04 03:06:27;;;;;;;;;;;;;;;20.27;54.52;100750.25;7284230;19;152002;-49
2021/11/04 03:08:53;;;;;;;;;;;;;;;20.27;54.47;100749.44;7285610;19;152788;-48
2021/11/04 03:11:20;;;;;;;;;;;;;;;20.27;54.76;100747.47;7284529;19;153923;-48
2021/11/04 03:13:47;;;;;;;;;;;;;;;20.27;54.54;100743.81;7285850;19;152094;-49
2021/11/04 03:16:15;;;;;;;;;;;;;;;20.25;54.50;100754.53;7285343;19;152230;-49
2021/11/04 03:18:42;;;;;;;;;;;;;;;20.23;54.50;100749.22;7284025;19;151859;-49
2021/11/04 03:21:09;;;;;;;;;;;;;;;20.23;54.37;100756.81;7284731;19;151719;-48
2021/11/04 03:23:36;;;;;;;;;;;;;;;20.23;54.70;100756.81;7291339;19;153570;-48
2021/11/04 03:26:03;;;;;;;;;;;;;;;20.17;54.67;100752.47;7280533;19;151841;-48
2021/11/04 03:28:31;;;;;;;;;;;;;;;20.17;54.71;100752.47;7279713;19;152777;-49
2021/11/04 03:30:59;;;;;;;;;;;;;;;20.13;54.93;100749.41;7284991;19;153361;-50
2021/11/04 03:33:27;;;;;;;;;;;;;;;20.10;54.95;100757.63;7284762;19;151828;-49
2021/11/04 03:35:55;;;;;;;;;;;;;;;20.09;54.93;100758.75;7285486;19;152783;-48
2021/11/04 03:38:23;;;;;;;;;;;;;;;20.09;54.81;100755.97;7281885;19;153288;-49
2021/11/04 03:40:50;;;;;;;;;;;;;;;20.04;54.79;100756.88;7285248;19;152387;-48
2021/11/04 03:43:17;;;;;;;;;;;;;;;20.01;55.22;100757.53;7284235;19;152581;-48
2021/11/04 03:45:45;;;;;;;;;;;;;;;20.02;55.13;100764.81;7289411;19;153285;-48
2021/11/04 03:48:12;;;;;;;;;;;;;;;20.01;54.68;100765.09;7282757;19;153122;-49
2021/11/04 03:50:40;;;;;;;;;;;;;;;19.98;54.74;100770.19;7282342;19;153316;-48
2021/11/04 03:53:07;;;;;;;;;;;;;;;19.98;55.06;100770.19;7284733;19;152518;-48
2021/11/04 03:55:34;;;;;;;;;;;;;;;19.94;55.31;100777.53;7280398;19;154280;-49
2021/11/04 03:58:02;;;;;;;;;;;;;;;19.96;54.99;100775.28;7282803;19;154150;-48
2021/11/04 04:00:29;;;;;;;;;;;;;;;19.94;54.97;100771.94;7282755;19;151742;-49
2021/11/04 04:02:56;;;;;;;;;;;;;;;19.91;55.33;100778.16;7284049;19;152160;-48
2021/11/04 04:05:27;;;;;;;;;;;;;;;19.89;55.37;100777.66;7280890;19;153005;-49
2021/11/04 04:07:55;;;;;;;;;;;;;;;19.89;55.44;100780.47;7289559;19;151800;-49
2021/11/04 04:10:22;;;;;;;;;;;;;;;19.88;55.22;100777.97;7279302;19;154049;-49
2021/11/04 04:12:48;;;;;;;;;;;;;;;19.85;55.63;100782.19;7284070;19;151981;-49
2021/11/04 04:15:15;;;;;;;;;;;;;;;19.86;55.48;100789.47;7283110;19;152645;-48
2021/11/04 04:17:42;;;;;;;;;;;;;;;19.84;55.71;100788.13;7282642;19;153911;-48
2021/11/04 04:20:09;;;;;;;;;;;;;;;19.80;56.07;100792.69;7288263;19;151769;-49
2021/11/04 04:22:36;;;;;;;;;;;;;;;19.78;55.69;100789.34;7288929;19;153964;-49
2021/11/04 04:25:05;;;;;;;;;;;;;;;19.80;55.97;100793.53;7288504;19;153637;-49
2021/11/04 04:27:31;;;;;;;;;;;;;;;19.76;55.95;100795.25;7288446;19;151751;-49
2021/11/04 04:29:58;;;;;;;;;;;;;;;19.76;56.04;100795.25;7295664;19;153346;-49
2021/11/04 04:32:27;;;;;;;;;;;;;;;19.79;55.61;100800.25;7289827;19;152130;-48
2021/11/04 04:34:54;;;;;;;;;;;;;;;19.74;56.10;100800.34;7289421;19;152644;-48
2021/11/04 04:37:21;;;;;;;;;;;;;;;19.74;56.05;100805.97;7288746;19;153187;-49
2021/11/04 04:39:48;;;;;;;;;;;;;;;19.72;55.69;100801.78;7288195;19;152191;-48
2021/11/04 04:42:15;;;;;;;;;;;;;;;19.74;55.84;100805.13;7290063;19;152580;-49
2021/11/04 04:44:42;;;;;;;;;;;;;;;19.71;56.23;100814.16;7286757;19;153716;-48
2021/11/04 04:47:09;;;;;;;;;;;;;;;19.69;55.93;100810.81;7288879;19;151673;-49
2021/11/04 04:49:36;;;;;;;;;;;;;;;19.68;55.93;100815.56;7289864;19;153181;-49
2021/11/04 04:52:04;;;;;;;;;;;;;;;19.67;55.74;100816.72;7295329;19;152183;-48
2021/11/04 04:54:31;;;;;;;;;;;;;;;19.67;55.98;100811.09;7288446;19;153434;-49
2021/11/04 04:56:58;;;;;;;;;;;;;;;19.70;55.58;100809.69;7288099;19;153368;-49
2021/11/04 04:59:25;;;;;;;;;;;;;;;19.70;55.17;100812.47;7288151;19;152137;-48
2021/11/04 05:01:51;;;;;;;;;;;;;;;19.70;55.63;100815.28;7286992;19;153101;-48
2021/11/04 05:04:18;;;;;;;;;;;;;;;19.69;55.40;100814.44;7286581;19;153962;-49
2021/11/04 05:06:45;;;;;;;;;;;;;;;19.67;55.01;100815.91;7287389;19;152006;-49
2021/11/04 05:09:12;;;;;;;;;;;;;;;19.70;55.08;100821.72;7288540;19;153133;-48
2021/11/04 05:11:39;;;;;;;;;;;;;;;19.71;54.68;100822.56;7287051;19;153463;-48
2021/11/04 05:14:06;;;;;;;;;;;;;;;19.65;54.70;100824.59;7295853;19;152123;-49
2021/11/04 05:16:33;;;;;;;;;;;;;;;19.64;54.56;100824.91;7287442;19;153280;-48
2021/11/04 05:19:01;;;;;;;;;;;;;;;19.63;54.49;100824.06;7286455;19;152541;-48
2021/11/04 05:21:28;;;;;;;;;;;;;;;19.60;54.32;100835.91;7288975;19;153071;-49
2021/11/04 05:23:55;;;;;;;;;;;;;;;19.68;54.49;100831.56;7286847;19;153853;-49
2021/11/04 05:26:22;;;;;;;;;;;;;;;19.56;54.54;100839.63;7286574;19;152087;-48
2021/11/04 05:28:49;;;;;;;;;;;;;;;19.55;54.58;100844.38;7285791;19;153453;-49
2021/11/04 05:31:16;;;;;;;;;;;;;;;19.50;54.68;100836.06;7287276;19;154528;-49
2021/11/04 05:33:43;;;;;;;;;;;;;;;19.53;54.75;100841.88;7295760;19;152072;-49
2021/11/04 05:36:09;;;;;;;;;;;;;;;19.47;54.84;100847.88;7286757;19;152629;-49
2021/11/04 05:38:37;;;;;;;;;;;;;;;19.52;54.92;100842.19;7287834;19;152522;-49
2021/11/04 05:41:04;;;;;;;;;;;;;;;19.51;54.81;100852.56;7287813;19;152784;-49
2021/11/04 05:43:31;;;;;;;;;;;;;;;19.49;54.48;100849.22;7286547;19;153545;-48
2021/11/04 05:45:58;;;;;;;;;;;;;;;19.43;54.65;100860.81;7286714;19;151881;-49
2021/11/04 05:48:25;;;;;;;;;;;;;;;19.43;54.64;100858.00;7287683;19;152630;-49
2021/11/04 05:50:52;;;;;;;;;;;;;;;19.38;54.74;100863.69;7286785;19;154213;-49
2021/11/04 05:53:19;;;;;;;;;;;;;;;19.40;54.76;100861.38;7287556;19;151989;-48
2021/11/04 05:55:48;;;;;;;;;;;;;;;19.37;55.27;100856.41;7294433;19;153101;-48
2021/11/04 05:58:15;;;;;;;;;;;;;;;19.32;54.87;100854.50;7287869;19;151811;-48
2021/11/04 06:00:42;;;;;;;;;;;;;;;19.33;54.89;100855.34;7284687;19;153764;-52
2021/11/04 06:03:12;;;;;;;;;;;;;;;19.31;55.63;100857.59;7284227;19;152245;-49
2021/11/04 06:05:40;;;;;;;;;;;;;;;19.40;55.45;100867.84;7287077;19;152000;-49
2021/11/04 06:08:07;;;;;;;;;;;;;;;19.45;55.86;100866.94;7286055;19;153265;-49
2021/11/04 06:10:34;;;;;;;;;;;;;;;19.48;55.83;100866.38;7286240;19;153272;-49
2021/11/04 06:13:01;;;;;;;;;;;;;;;19.51;56.03;100868.56;7285623;19;151639;-49
2021/11/04 06:15:28;;;;;;;;;;;;;;;19.52;55.67;100873.88;7285805;19;151629;-49
2021/11/04 06:17:55;;;;;;;;;;;;;;;19.55;55.61;100869.59;7293385;19;154387;-50
2021/11/04 06:20:22;;;;;;;;;;;;;;;19.55;56.08;100872.41;7286150;19;153382;-49
2021/11/04 06:22:49;;;;;;;;;;;;;;;19.59;56.10;100872.63;7286058;19;153616;-49
2021/11/04 06:25:16;;;;;;;;;;;;;;;19.60;55.80;100879.91;7285088;19;153661;-49
2021/11/04 06:27:43;;;;;;;;;;;;;;;19.62;56.12;100867.28;7287066;19;152463;-49
2021/11/04 06:30:10;;;;;;;;;;;;;;;19.64;55.80;100878.16;7285396;19;154226;-49
2021/11/04 06:32:37;;;;;;;;;;;;;;;19.62;55.93;100872.88;7284577;19;151996;-49
2021/11/04 06:35:05;;;;;;;;;;;;;;;19.65;55.75;100880.66;7285701;19;152939;-49
2021/11/04 06:37:32;;;;;;;;;;;;;;;19.66;56.00;100882.34;7285633;19;153918;-50
2021/11/04 06:39:59;;;;;;;;;;;;;;;19.66;55.89;100889.91;7292527;19;152253;-49
2021/11/04 06:42:26;;;;;;;;;;;;;;;19.68;55.77;100896.88;7284535;19;153979;-50
2021/11/04 06:44:53;;;;;;;;;;;;;;;19.69;55.71;100892.94;7285466;19;151790;-50
2021/11/04 06:47:28;;;;;;;;;;;;;;;19.70;55.44;100903.03;7283745;19;153454;-49
2021/11/04 06:49:56;;;;;;;;;;;;;;;19.72;55.41;100902.69;7282462;19;153487;-49
2021/11/04 06:52:24;;;;;;;;;;;;;;;19.71;55.75;100907.50;7284130;19;151594;-50
2021/11/04 06:54:54;;;;;;;;;;;;;;;19.72;55.34;100911.94;7283851;19;152595;-50
2021/11/04 06:57:24;;;;;;;;;;;;;;;19.70;55.48;100908.63;7285200;19;154127;-50
2021/11/04 06:59:53;;;;;;;;;;;;;;;19.72;55.68;100909.13;7285329;19;152441;-50
2021/11/04 07:02:29;;;;;;;;;;;;;;;19.73;55.45;100913.59;7288954;19;152736;-51
2021/11/04 07:04:57;;;;;;;;;;;;;;;19.72;55.41;100917.53;7284276;19;151577;-50
2021/11/04 07:07:24;;;;;;;;;;;;;;;19.72;55.67;100917.53;7282200;19;152795;-50
2021/11/04 07:09:51;;;;;;;;;;;;;;;19.71;55.64;100926.28;7283406;19;154079;-50
2021/11/04 07:12:18;;;;;;;;;;;;;;;19.69;55.34;100937.78;7285429;19;152249;-50
2021/11/04 07:14:47;;;;;;;;;;;;;;;19.70;55.24;100942.25;7284026;19;152684;-50
2021/11/04 07:17:14;;;;;;;;;;;;;;;19.70;55.96;100936.66;7284778;19;153711;-50
2021/11/04 07:19:42;;;;;;;;;;;;;;;19.70;55.52;100941.44;7281285;19;152339;-50
2021/11/04 07:22:12;;;;;;;;;;;;;;;19.70;55.66;100944.22;7282354;19;153422;-50
2021/11/04 07:24:43;;;;;;;;;;;;;;;19.73;55.33;100946.41;7289244;19;152664;-50
2021/11/04 07:27:13;;;;;;;;;;;;;;;19.71;55.31;100952.34;7281146;19;153322;-49
2021/11/04 07:29:42;;;;;;;;;;;;;;;19.75;55.25;100953.41;7283371;19;153809;-49
2021/11/04 07:32:09;;;;;;;;;;;;;;;19.77;55.19;100965.13;7282767;19;152017;-49
2021/11/04 07:34:36;;;;;;;;;;;;;;;19.76;54.97;100957.03;7284482;19;152185;-49
2021/11/04 07:37:05;;;;;;;;;;;;;;;19.77;55.01;100969.91;7283801;19;153831;-50
2021/11/04 07:39:32;;;;;;;;;;;;;;;19.78;55.22;100978.03;7283899;19;153464;-50
2021/11/04 07:41:59;;;;;;;;;;;;;;;19.80;55.01;100967.34;7283798;19;153488;-51
2021/11/04 07:44:31;;;;;;;;;;;;;;;19.85;55.13;100975.66;7291057;19;153501;-50
2021/11/04 07:46:58;;;;;;;;;;;;;;;19.89;54.78;100975.91;7282559;19;153717;-50
2021/11/04 07:49:25;;;;;;;;;;;;;;;19.94;54.43;100987.84;7284027;19;153303;-50
2021/11/04 07:51:56;;;;;;;;;;;;;;;19.98;54.34;100983.34;7281886;19;151899;-50
2021/11/04 07:54:23;;;;;;;;;;;;;;;20.03;53.91;100996.44;7283964;19;153450;-50
2021/11/04 07:56:50;;;;;;;;;;;;;;;20.06;53.72;100995.00;7281684;19;153269;-50
2021/11/04 07:59:17;;;;;;;;;;;;;;;20.08;53.46;100993.53;7284047;19;151528;-51
2021/11/04 08:01:47;;;;;;;;;;;;;;;20.13;53.30;101001.88;7281649;19;153426;-51
2021/11/04 08:04:14;;;;;;;;;;;;;;;20.17;53.15;101004.94;7282671;19;153723;-50
2021/11/04 08:06:56;;;;;;;;;;;;;;;20.20;52.96;101015.53;7289750;19;152396;-50
2021/11/04 08:09:28;;;;;;;;;;;;;;;20.23;52.46;101007.34;7281022;19;153512;-49
2021/11/04 08:12:00;;;;;;;;;;;;;;;20.30;52.36;101012.59;7284162;19;152119;-50
2021/11/04 08:14:31;;;;;;;;;;;;;;;20.33;52.01;101012.81;7282200;19;152364;-51
2021/11/04 08:16:59;;;;;;;;;;;;;;;20.37;51.99;101015.84;7282572;19;153125;-50
2021/11/04 08:19:26;;;;;;;;;;;;;;;20.40;51.50;101016.06;7282600;19;151753;-50
2021/11/04 08:21:53;;;;;;;;;;;;;;;20.44;51.64;101021.91;7283782;19;153162;-50
2021/11/04 08:24:20;;;;;;;;;;;;;;;20.48;51.31;101024.94;7281433;19;154132;-49
2021/11/04 08:26:47;;;;;;;;;;;;;;;20.44;47.76;101023.88;7282694;19;151704;-51
2021/11/04 08:29:14;;;;;;;;;;;;;;;20.35;47.19;101030.16;7290357;19;152717;-51
2021/11/04 08:31:41;;;;;;;;;;;;;;;20.46;46.92;101030.00;7282115;19;152255;-50
2021/11/04 08:34:08;;;;;;;;;;;;;;;20.51;47.86;101018.69;7279610;19;153549;-50
2021/11/04 08:36:35;;;;;;;;;;;;;;;20.53;48.05;101030.47;7283288;19;153458;-50
2021/11/04 08:39:02;;;;;;;;;;;;;;;20.55;48.22;101029.00;7282955;19;151717;-50
2021/11/04 08:41:29;;;;;;;;;;;;;;;20.58;48.49;101038.81;7283112;19;153739;-50
2021/11/04 08:43:56;;;;;;;;;;;;;;;20.63;48.59;101035.88;7280624;19;153141;-51
2021/11/04 08:46:23;;;;;;;;;;;;;;;20.64;48.93;101049.63;7281628;19;152858;-50
2021/11/04 08:48:50;;;;;;;;;;;;;;;20.66;48.97;101041.75;7279563;19;153336;-50
2021/11/04 08:51:17;;;;;;;;;;;;;;;20.70;48.90;101039.16;7288864;19;153445;-50
2021/11/04 08:53:44;;;;;;;;;;;;;;;20.75;48.76;101041.88;7281003;19;152967;-50
2021/11/04 08:56:17;;;;;;;;;;;;;;;20.78;48.87;101041.25;7280792;19;152515;-50
2021/11/04 08:58:46;;;;;;;;;;;;;;;20.80;48.68;101042.59;7263448;19;152238;-51
2021/11/04 09:01:13;;;;;;;;;;;;;;;20.85;48.97;101044.47;7279661;19;152801;-51
2021/11/04 09:03:44;;;;;;;;;;;;;;;20.89;48.79;101044.72;7280895;19;154066;-50
2021/11/04 09:06:15;;;;;;;;;;;;;;;20.94;48.47;101048.22;7288030;19;152075;-50
2021/11/04 09:08:43;;;;;;;;;;;;;;;20.97;48.86;101041.19;7284689;19;152728;-50
2021/11/04 09:11:10;;;;;;;;;;;;;;;21.01;48.64;101050.66;7287878;19;153320;-50
2021/11/04 09:13:41;;;;;;;;;;;;;;;21.04;48.66;101064.91;7295770;19;151924;-51
2021/11/04 09:16:15;;;;;;;;;;;;;;;21.07;48.29;101061.50;7286214;19;152652;-50
2021/11/04 09:18:44;;;;;;;;;;;;;;;21.10;48.29;101066.50;7288975;19;152047;-50
2021/11/04 09:21:11;;;;;;;;;;;;;;;21.12;48.23;101061.38;7285689;19;152160;-50
2021/11/04 09:23:38;;;;;;;;;;;;;;;21.13;48.19;101068.72;7285626;19;154306;-51
2021/11/04 09:26:21;;;;;;;;;;;;;;;21.15;48.57;101059.97;7288044;19;153235;-50
2021/11/04 09:29:22;;;;;;;;;;;;;;;21.17;48.54;101061.31;7287655;19;152393;-50
2021/11/04 09:31:49;;;;;;;;;;;;;;;21.18;47.97;101071.44;7285641;19;153715;-50
2021/11/04 09:34:17;;;;;;;;;;;;;;;21.21;47.94;101072.81;7294901;19;152227;-51
2021/11/04 09:36:45;;;;;;;;;;;;;;;21.22;48.16;101077.25;7286806;19;152671;-50
2021/11/04 09:39:13;;;;;;;;;;;;;;;21.23;48.16;101076.13;7286999;19;152052;-51
2021/11/04 09:41:53;;;;;;;;;;;;;;;21.22;47.78;101083.72;7286620;19;152740;-50
2021/11/04 09:44:27;;;;;;;;;;;;;;;21.23;47.78;101070.50;7285443;19;152815;-51
2021/11/04 09:46:54;;;;;;;;;;;;;;;21.23;47.61;101073.31;7287092;19;152619;-50
2021/11/04 09:49:26;;;;;;;;;;;;;;;21.24;47.80;101083.41;7285470;19;153503;-50
2021/11/04 09:51:56;;;;;;;;;;;;;;;21.24;47.80;101083.41;7286405;19;154238;-50
2021/11/04 09:54:23;;;;;;;;;;;;;;;21.25;48.07;101082.28;7286135;19;151905;-51
2021/11/04 09:56:50;;;;;;;;;;;;;;;21.24;47.88;101097.47;7294456;19;152698;-50
2021/11/04 09:59:17;;;;;;;;;;;;;;;21.22;47.46;101080.91;7286648;19;152066;-50
2021/11/04 10:01:47;;;;;;;;;;;;;;;21.21;47.38;101096.09;7284632;19;153375;-50
2021/11/04 10:04:32;;;;;;;;;;;;;;;21.20;47.63;101099.22;7285868;19;152546;-50
2021/11/04 10:07:09;;;;;;;;;;;;;;;21.20;47.56;101099.22;7285190;19;151900;-51
2021/11/04 10:09:52;;;;;;;;;;;;;;;21.19;47.66;101097.56;7286909;19;152518;-51
2021/11/04 10:12:19;;;;;;;;;;;;;;;21.18;47.22;101122.00;7286344;19;153809;-50
2021/11/04 10:14:47;;;;;;;;;;;;;;;21.15;47.29;101117.00;7286248;19;152509;-50
2021/11/04 10:17:19;;;;;;;;;;;;;;;21.15;47.44;101124.59;7285644;19;152535;-50
2021/11/04 10:19:46;;;;;;;;;;;;;;;21.15;47.17;101124.59;7292395;19;154184;-51
2021/11/04 10:22:23;;;;;;;;;;;;;;;21.14;47.31;101134.16;7283899;19;154250;-50
2021/11/04 10:24:51;;;;;;;;;;;;;;;21.12;47.32;101144.88;7283084;19;153913;-51
2021/11/04 10:27:22;;;;;;;;;;;;;;;21.09;47.33;101137.88;7284600;19;151837;-50
2021/11/04 10:29:54;;;;;;;;;;;;;;;21.09;47.25;101146.28;7286808;19;153348;-51
2021/11/04 10:32:32;;;;;;;;;;;;;;;21.07;47.14;101153.38;7285306;19;153577;-51
2021/11/04 10:35:02;;;;;;;;;;;;;;;21.05;47.59;101155.66;7286099;19;152542;-50
2021/11/04 10:37:29;;;;;;;;;;;;;;;21.03;47.21;101157.94;7286728;19;153384;-50
2021/11/04 10:40:01;;;;;;;;;;;;;;;21.01;47.35;101160.22;7284626;19;152393;-50
2021/11/04 10:42:28;;;;;;;;;;;;;;;21.00;47.56;101165.00;7293149;19;151771;-50
2021/11/04 10:44:55;;;;;;;;;;;;;;;20.97;47.43;101168.44;7284615;19;152380;-51
2021/11/04 10:47:22;;;;;;;;;;;;;;;20.97;47.24;101167.59;7285299;19;151834;-50
2021/11/04 10:49:50;;;;;;;;;;;;;;;20.96;47.53;101165.91;7286181;19;152764;-50
2021/11/04 10:52:23;;;;;;;;;;;;;;;20.92;47.42;101159.25;7282142;19;152465;-50
2021/11/04 10:54:51;;;;;;;;;;;;;;;20.89;47.30;101168.28;7283703;19;151934;-50
2021/11/04 10:57:21;;;;;;;;;;;;;;;20.89;47.21;101157.88;7286093;19;153895;-50
2021/11/04 10:59:48;;;;;;;;;;;;;;;20.88;47.43;101166.63;7284352;19;153601;-51
2021/11/04 11:02:17;;;;;;;;;;;;;;;20.86;47.02;101166.91;7282054;19;151880;-51
2021/11/04 11:04:44;;;;;;;;;;;;;;;20.87;47.46;101160.16;7292272;19;152344;-50
2021/11/04 11:07:12;;;;;;;;;;;;;;;20.84;47.14;101161.63;7285278;19;151876;-50
2021/11/04 11:09:39;;;;;;;;;;;;;;;20.80;47.50;101154.91;7283571;19;152595;-50
2021/11/04 11:12:06;;;;;;;;;;;;;;;20.78;47.64;101165.63;7282210;19;153936;-50
2021/11/04 11:14:35;;;;;;;;;;;;;;;20.78;47.45;101167.59;7283910;19;151735;-50
2021/11/04 11:17:07;;;;;;;;;;;;;;;20.77;47.37;101180.81;7285170;19;151600;-50
2021/11/04 11:19:43;;;;;;;;;;;;;;;20.78;47.49;101174.06;7281242;19;152355;-50
2021/11/04 11:22:10;;;;;;;;;;;;;;;20.78;47.36;101181.66;7283603;19;151585;-50
2021/11/04 11:24:39;;;;;;;;;;;;;;;20.78;47.25;101181.66;7284433;19;153491;-50
2021/11/04 11:27:13;;;;;;;;;;;;;;;20.72;47.47;101185.66;7290142;19;153258;-49
2021/11/04 11:29:42;;;;;;;;;;;;;;;20.73;47.63;101182.56;7278625;19;151993;-50
2021/11/04 11:32:17;;;;;;;;;;;;;;;20.69;47.51;101189.94;7281003;19;153768;-50
2021/11/04 11:34:46;;;;;;;;;;;;;;;20.72;47.29;101196.91;7284184;19;151915;-50
2021/11/04 11:37:19;;;;;;;;;;;;;;;20.68;47.61;101196.66;7285355;19;153404;-50
2021/11/04 11:40:09;;;;;;;;;;;;;;;20.65;47.50;101205.72;7281638;19;152865;-50
2021/11/04 11:42:36;;;;;;;;;;;;;;;20.63;47.76;101202.34;7284951;19;152001;-50
2021/11/04 11:45:11;;;;;;;;;;;;;;;20.65;47.49;101208.53;7283666;19;152967;-50
2021/11/04 11:47:39;;;;;;;;;;;;;;;20.55;48.02;101211.47;7291167;19;153427;-50
2021/11/04 11:50:16;;;;;;;;;;;;;;;20.57;48.13;101212.00;7280229;19;152532;-50
2021/11/04 11:52:44;;;;;;;;;;;;;;;20.60;48.43;101211.41;7283363;19;153511;-50
2021/11/04 11:55:14;;;;;;;;;;;;;;;20.61;48.65;101218.69;7282532;19;152699;-50
2021/11/04 11:58:01;;;;;;;;;;;;;;;20.55;48.82;101214.28;7284042;19;152828;-50
2021/11/04 12:00:39;;;;;;;;;;;;;;;20.55;48.35;101219.88;7280407;19;152538;-50
2021/11/04 12:03:08;;;;;;;;;;;;;;;20.54;48.54;101232.25;7282660;19;151977;-50
2021/11/04 12:05:35;;;;;;;;;;;;;;;20.51;48.34;101218.81;7283714;19;152934;-50
2021/11/04 12:08:12;;;;;;;;;;;;;;;20.53;48.42;101222.19;7281960;19;154072;-50
2021/11/04 12:10:39;;;;;;;;;;;;;;;20.48;48.07;101219.44;7290331;19;151866;-50
2021/11/04 12:13:06;;;;;;;;;;;;;;;20.47;48.45;101219.72;7282675;19;152642;-50
2021/11/04 12:15:43;;;;;;;;;;;;;;;20.45;47.86;101227.59;7284024;19;152482;-50
2021/11/04 12:18:16;;;;;;;;;;;;;;;20.42;48.03;101217.81;7284451;19;153576;-50
2021/11/04 12:20:52;;;;;;;;;;;;;;;20.46;47.86;101215.25;7282453;19;153539;-50
2021/11/04 12:23:33;;;;;;;;;;;;;;;20.42;47.97;101218.66;7282875;19;151787;-50
2021/11/04 12:26:00;;;;;;;;;;;;;;;20.42;48.11;101215.03;7281788;19;152904;-50
2021/11/04 12:28:26;;;;;;;;;;;;;;;20.43;48.07;101219.50;7281455;19;153780;-50
2021/11/04 12:30:53;;;;;;;;;;;;;;;20.49;48.38;101221.09;7283716;19;151735;-51
2021/11/04 12:33:20;;;;;;;;;;;;;;;20.50;48.27;101222.75;7288092;19;152772;-50
2021/11/04 12:35:52;;;;;;;;;;;;;;;20.50;47.93;101217.16;7282897;19;152502;-50